createdAt,value
2023-02-17T00:01:30.996Z,18.90
2023-02-17T00:04:01.350Z,17.67
2023-02-17T00:06:31.770Z,17.47
2023-02-17T00:09:01.888Z,16.87
2023-02-17T00:11:30.530Z,17.57
2023-02-17T00:14:00.242Z,18.07
2023-02-17T00:16:30.037Z,16.57
2023-02-17T00:19:02.360Z,18.27
2023-02-17T00:21:33.168Z,22.77
2023-02-17T00:24:01.830Z,18.47
2023-02-17T00:26:30.433Z,17.63
2023-02-17T00:29:00.188Z,18.97
2023-02-17T00:31:28.583Z,19.17
2023-02-17T00:33:57.805Z,18.37
2023-02-17T00:36:28.166Z,18.80
2023-02-17T00:38:58.652Z,17.53
2023-02-17T00:41:28.824Z,18.10
2023-02-17T00:43:57.416Z,17.97
2023-02-17T00:46:27.176Z,17.77
2023-02-17T00:48:55.799Z,17.83
2023-02-17T00:51:26.195Z,18.87
2023-02-17T00:53:54.421Z,19.67
2023-02-17T00:56:22.614Z,17.90
2023-02-17T00:58:50.844Z,18.87
2023-02-17T01:01:19.103Z,18.83
2023-02-17T01:03:47.363Z,18.70
2023-02-17T01:06:24.228Z,19.33
2023-02-17T01:08:54.222Z,19.90
2023-02-17T01:11:25.569Z,20.07
2023-02-17T01:13:54.183Z,21.40
2023-02-17T01:16:25.674Z,19.40
2023-02-17T01:18:54.081Z,19.87
2023-02-17T01:21:25.547Z,19.43
2023-02-17T01:23:57.598Z,19.27
2023-02-17T01:26:28.680Z,19.27
2023-02-17T01:28:57.193Z,18.17
2023-02-17T01:31:27.848Z,19.57
2023-02-17T01:33:57.767Z,19.47
2023-02-17T01:36:26.251Z,19.50
2023-02-17T01:38:55.926Z,19.37
2023-02-17T01:41:27.720Z,20.80
2023-02-17T01:44:22.036Z,21.10
2023-02-17T01:46:52.696Z,20.13
2023-02-17T01:49:30.295Z,19.97
2023-02-17T01:52:06.766Z,19.63
2023-02-17T01:54:42.459Z,19.13
2023-02-17T01:57:12.344Z,19.80
2023-02-17T01:59:43.646Z,20.13
2023-02-17T02:02:12.674Z,21.60
2023-02-17T02:04:44.467Z,20.50
2023-02-17T02:07:17.945Z,20.77
2023-02-17T02:09:52.189Z,20.30
2023-02-17T02:12:23.698Z,20.10
2023-02-17T02:14:53.238Z,19.80
2023-02-17T02:17:34.869Z,20.90
2023-02-17T02:20:35.285Z,19.73
2023-02-17T02:23:44.895Z,20.50
2023-02-17T02:26:59.879Z,19.33
2023-02-17T02:30:19.727Z,17.67
2023-02-17T02:33:04.640Z,17.67
2023-02-17T02:35:46.300Z,18.30
2023-02-17T02:38:21.704Z,17.77
2023-02-17T02:40:55.161Z,17.83
2023-02-17T02:43:24.894Z,18.20
2023-02-17T02:45:53.139Z,18.97
2023-02-17T02:48:22.839Z,19.47
2023-02-17T02:51:22.804Z,18.93
2023-02-17T02:54:04.982Z,19.47
2023-02-17T02:56:48.137Z,19.20
2023-02-17T02:59:29.884Z,20.43
2023-02-17T03:02:09.471Z,19.60
2023-02-17T03:04:45.340Z,20.13
2023-02-17T03:07:22.121Z,18.33
2023-02-17T03:09:52.625Z,18.60
2023-02-17T03:12:22.648Z,18.73
2023-02-17T03:14:54.700Z,19.60
2023-02-17T03:17:23.047Z,18.57
2023-02-17T03:19:53.012Z,19.07
2023-02-17T03:22:25.246Z,19.03
2023-02-17T03:24:53.539Z,20.37
2023-02-17T03:27:21.802Z,21.63
2023-02-17T03:29:50.081Z,20.47
2023-02-17T03:32:18.433Z,18.53
2023-02-17T03:34:46.788Z,19.00
2023-02-17T03:37:16.547Z,19.17
2023-02-17T03:39:44.829Z,18.97
2023-02-17T03:42:13.177Z,19.37
2023-02-17T03:44:41.496Z,19.03
2023-02-17T03:47:09.771Z,21.60
2023-02-17T03:49:38.061Z,20.67
2023-02-17T03:52:06.654Z,18.97
2023-02-17T03:54:36.289Z,20.37
2023-02-17T03:57:04.719Z,20.43
2023-02-17T03:59:32.952Z,17.63
2023-02-17T04:02:01.296Z,20.23
2023-02-17T04:04:29.642Z,21.27
2023-02-17T04:06:57.901Z,21.07
2023-02-17T04:09:26.205Z,22.13
2023-02-17T04:11:55.800Z,22.17
2023-02-17T04:14:24.060Z,20.83
2023-02-17T04:16:52.317Z,23.03
2023-02-17T04:19:21.349Z,21.60
2023-02-17T04:21:49.653Z,21.33
2023-02-17T04:24:17.911Z,21.53
2023-02-17T04:26:46.136Z,19.60
2023-02-17T04:29:15.784Z,21.03
2023-02-17T04:31:44.088Z,21.07
2023-02-17T04:34:12.561Z,20.67
2023-02-17T04:36:41.737Z,20.00
2023-02-17T04:39:11.135Z,21.53
2023-02-17T04:41:39.483Z,19.77
2023-02-17T04:44:07.916Z,20.17
2023-02-17T04:46:37.625Z,20.43
2023-02-17T04:49:05.926Z,20.20
2023-02-17T04:51:34.143Z,19.87
2023-02-17T04:54:02.372Z,20.30
2023-02-17T04:56:30.612Z,19.90
2023-02-17T04:58:58.868Z,19.90
2023-02-17T05:01:27.470Z,19.83
2023-02-17T05:03:57.170Z,20.50
2023-02-17T05:06:25.428Z,20.27
2023-02-17T05:08:54.306Z,19.97
2023-02-17T05:11:22.581Z,20.73
2023-02-17T05:13:50.800Z,19.87
2023-02-17T05:16:19.058Z,19.90
2023-02-17T05:18:47.407Z,20.20
2023-02-17T05:21:16.967Z,20.10
2023-02-17T05:23:45.226Z,19.03
2023-02-17T05:26:13.487Z,20.33
2023-02-17T05:28:41.759Z,20.43
2023-02-17T05:31:10.757Z,20.00
2023-02-17T05:33:39.084Z,19.87
2023-02-17T05:36:10.378Z,20.80
2023-02-17T05:38:40.905Z,21.20
2023-02-17T05:41:09.240Z,19.13
2023-02-17T05:43:37.498Z,20.33
2023-02-17T05:46:06.732Z,19.93
2023-02-17T05:48:35.838Z,19.97
2023-02-17T05:51:04.664Z,20.20
2023-02-17T05:53:33.353Z,21.47
2023-02-17T05:56:02.990Z,20.77
2023-02-17T05:58:31.281Z,21.33
2023-02-17T06:00:59.515Z,18.83
2023-02-17T06:03:27.779Z,19.93
2023-02-17T06:05:56.031Z,19.47
2023-02-17T06:08:24.248Z,18.50
2023-02-17T06:10:54.404Z,19.57
2023-02-17T06:13:24.082Z,18.87
2023-02-17T06:15:52.441Z,19.00
2023-02-17T06:18:20.974Z,20.97
2023-02-17T06:20:49.321Z,19.70
2023-02-17T06:23:17.701Z,19.90
2023-02-17T06:25:45.932Z,19.70
2023-02-17T06:28:14.260Z,19.47
2023-02-17T06:30:43.951Z,19.37
2023-02-17T06:33:12.198Z,20.17
2023-02-17T06:35:40.794Z,19.73
2023-02-17T06:38:09.117Z,19.57
2023-02-17T06:40:37.489Z,19.40
2023-02-17T06:43:07.340Z,19.17
2023-02-17T06:45:35.643Z,19.57
2023-02-17T06:48:05.578Z,19.00
2023-02-17T06:50:33.820Z,18.77
2023-02-17T06:53:02.076Z,18.87
2023-02-17T06:55:30.569Z,20.70
2023-02-17T06:57:58.804Z,20.03
2023-02-17T07:00:27.866Z,19.80
2023-02-17T07:02:56.186Z,21.10
2023-02-17T07:05:25.918Z,20.30
2023-02-17T07:07:56.006Z,20.30
2023-02-17T07:10:24.335Z,21.50
2023-02-17T07:12:53.053Z,20.97
2023-02-17T07:15:21.346Z,20.53
2023-02-17T07:17:49.748Z,21.30
2023-02-17T07:20:18.375Z,22.30
2023-02-17T07:22:48.024Z,21.43
2023-02-17T07:25:16.293Z,23.60
2023-02-17T07:27:44.569Z,22.77
2023-02-17T07:30:13.929Z,22.80
2023-02-17T07:32:42.241Z,22.73
2023-02-17T07:35:10.721Z,23.17
2023-02-17T07:37:39.025Z,24.23
2023-02-17T07:40:10.020Z,22.90
2023-02-17T07:42:38.314Z,24.17
2023-02-17T07:45:07.322Z,24.43
2023-02-17T07:47:35.551Z,23.23
2023-02-17T07:50:03.905Z,23.63
2023-02-17T07:52:32.181Z,24.33
2023-02-17T07:55:00.459Z,23.60
2023-02-17T07:57:30.084Z,22.77
2023-02-17T07:59:58.337Z,23.20
2023-02-17T08:02:26.628Z,23.00
2023-02-17T08:04:54.947Z,23.60
2023-02-17T08:07:23.187Z,22.50
2023-02-17T08:10:09.048Z,21.43
2023-02-17T08:12:55.940Z,22.63
2023-02-17T08:15:24.520Z,22.37
2023-02-17T08:17:53.219Z,23.43
2023-02-17T08:20:21.722Z,22.40
2023-02-17T08:22:49.930Z,24.23
2023-02-17T08:25:19.251Z,25.10
2023-02-17T08:27:48.820Z,25.80
2023-02-17T08:30:17.319Z,25.23
2023-02-17T08:32:47.647Z,23.27
2023-02-17T08:35:17.914Z,20.90
2023-02-17T08:37:46.219Z,21.60
2023-02-17T08:40:14.498Z,17.63
2023-02-17T08:42:42.792Z,17.07
2023-02-17T08:45:14.799Z,13.37
2023-02-17T08:47:43.225Z,12.60
2023-02-17T08:50:16.487Z,9.77
2023-02-17T08:52:44.802Z,8.90
2023-02-17T08:55:13.154Z,8.20
2023-02-17T08:57:41.413Z,6.43
2023-02-17T09:00:13.291Z,5.50
2023-02-17T09:02:43.525Z,4.93
2023-02-17T09:05:12.220Z,5.37
2023-02-17T09:07:40.888Z,4.70
2023-02-17T09:10:12.578Z,5.13
2023-02-17T09:12:41.614Z,5.60
2023-02-17T09:15:10.611Z,5.30
2023-02-17T09:17:42.570Z,4.57
2023-02-17T09:20:24.250Z,4.80
2023-02-17T09:22:54.144Z,4.00
2023-02-17T09:25:26.926Z,4.37
2023-02-17T09:27:55.198Z,5.50
2023-02-17T09:30:23.700Z,4.17
2023-02-17T09:32:53.500Z,4.50
2023-02-17T09:35:21.876Z,4.07
2023-02-17T09:37:50.391Z,4.30
2023-02-17T09:40:21.894Z,4.70
2023-02-17T09:42:50.372Z,4.57
2023-02-17T09:45:23.814Z,4.43
2023-02-17T09:47:56.739Z,4.30
2023-02-17T09:50:33.511Z,4.10
2023-02-17T09:53:09.324Z,4.10
2023-02-17T09:55:43.813Z,4.37
2023-02-17T09:58:18.815Z,4.87
2023-02-17T10:00:51.945Z,4.83
2023-02-17T10:03:31.023Z,4.53
2023-02-17T10:06:11.602Z,3.67
2023-02-17T10:08:47.703Z,3.57
2023-02-17T10:11:25.453Z,4.97
2023-02-17T10:13:56.751Z,4.27
2023-02-17T10:16:31.320Z,4.57
2023-02-17T10:19:06.236Z,3.97
2023-02-17T10:21:40.561Z,3.90
2023-02-17T10:24:09.174Z,4.30
2023-02-17T10:27:02.004Z,3.83
2023-02-17T10:29:41.607Z,3.83
2023-02-17T10:32:23.411Z,3.37
2023-02-17T10:35:14.534Z,3.93
2023-02-17T10:37:48.538Z,3.47
2023-02-17T10:40:22.272Z,3.90
2023-02-17T10:42:54.589Z,3.37
2023-02-17T10:45:35.082Z,3.40
2023-02-17T10:48:08.152Z,3.47
2023-02-17T10:50:39.517Z,3.40
2023-02-17T10:53:17.347Z,3.27
2023-02-17T10:55:55.651Z,4.10
2023-02-17T10:58:30.510Z,3.27
2023-02-17T11:00:59.310Z,3.33
2023-02-17T11:03:30.579Z,3.57
2023-02-17T11:06:02.758Z,3.43
2023-02-17T11:08:37.960Z,2.67
2023-02-17T11:11:15.780Z,3.00
2023-02-17T11:13:47.714Z,3.30
2023-02-17T11:16:27.418Z,3.63
2023-02-17T11:18:57.579Z,3.43
2023-02-17T11:21:29.591Z,2.70
2023-02-17T11:24:02.024Z,2.90
2023-02-17T11:26:32.877Z,2.90
2023-02-17T11:29:12.675Z,2.57
2023-02-17T11:31:41.087Z,2.67
2023-02-17T11:34:17.269Z,2.93
2023-02-17T11:36:47.129Z,2.60
2023-02-17T11:39:23.616Z,2.87
2023-02-17T11:41:51.911Z,2.60
2023-02-17T11:44:26.073Z,2.87
2023-02-17T11:47:07.703Z,2.50
2023-02-17T11:50:02.057Z,3.00
2023-02-17T11:52:50.534Z,2.90
2023-02-17T11:55:26.532Z,3.00
2023-02-17T11:58:13.617Z,3.10
2023-02-17T12:00:52.741Z,2.40
2023-02-17T12:03:53.253Z,2.97
2023-02-17T12:06:32.344Z,2.63
2023-02-17T12:09:14.741Z,2.47
2023-02-17T12:11:51.749Z,2.67
2023-02-17T12:15:01.723Z,3.07
2023-02-17T12:17:41.423Z,3.10
2023-02-17T12:20:32.810Z,2.50
2023-02-17T12:23:20.852Z,2.63
2023-02-17T12:25:56.958Z,2.30
2023-02-17T12:28:47.930Z,2.10
2023-02-17T12:31:34.342Z,2.03
2023-02-17T12:34:07.928Z,2.00
2023-02-17T12:36:40.099Z,2.17
2023-02-17T12:39:18.601Z,2.20
2023-02-17T12:41:52.873Z,2.70
2023-02-17T12:44:26.355Z,3.20
2023-02-17T12:46:58.663Z,4.30
2023-02-17T12:49:37.324Z,4.70
2023-02-17T12:52:12.234Z,5.00
2023-02-17T12:54:46.665Z,4.30
2023-02-17T12:57:23.849Z,4.20
2023-02-17T12:59:54.045Z,3.00
2023-02-17T13:02:24.501Z,2.57
2023-02-17T13:04:55.573Z,2.80
2023-02-17T13:07:44.708Z,2.20
2023-02-17T13:10:33.473Z,2.10
2023-02-17T13:13:07.498Z,2.43
2023-02-17T13:15:42.839Z,2.30
2023-02-17T13:18:16.070Z,2.60
2023-02-17T13:21:00.158Z,2.50
2023-02-17T13:23:40.216Z,2.60
2023-02-17T13:26:32.369Z,2.30
2023-02-17T13:29:37.254Z,1.87
2023-02-17T13:32:08.965Z,2.20
2023-02-17T13:34:39.804Z,3.27
2023-02-17T13:37:28.133Z,2.90
2023-02-17T13:39:56.470Z,3.80
2023-02-17T13:42:38.396Z,5.13
2023-02-17T13:45:25.442Z,5.73
2023-02-17T13:47:56.331Z,5.23
2023-02-17T13:50:35.245Z,6.93
2023-02-17T13:53:21.089Z,3.90
2023-02-17T13:55:49.562Z,4.63
2023-02-17T13:58:25.353Z,2.87
2023-02-17T14:00:55.484Z,2.57
2023-02-17T14:03:26.380Z,2.20
2023-02-17T14:05:56.619Z,2.00
2023-02-17T14:08:36.259Z,2.60
2023-02-17T14:11:10.854Z,2.10
2023-02-17T14:13:41.951Z,3.10
2023-02-17T14:16:31.552Z,4.30
2023-02-17T14:19:06.223Z,2.93
2023-02-17T14:21:35.501Z,2.90
2023-02-17T14:24:04.113Z,2.70
2023-02-17T14:26:38.186Z,2.80
2023-02-17T14:29:10.970Z,2.87
2023-02-17T14:31:43.068Z,2.53
2023-02-17T14:34:26.442Z,2.97
2023-02-17T14:36:54.756Z,2.87
2023-02-17T14:39:24.218Z,3.23
2023-02-17T14:41:52.482Z,3.40
2023-02-17T14:44:20.671Z,3.93
2023-02-17T14:46:50.526Z,3.40
2023-02-17T14:49:18.863Z,3.47
2023-02-17T14:51:47.111Z,3.40
2023-02-17T14:54:18.372Z,3.30
2023-02-17T14:56:53.052Z,3.07
2023-02-17T14:59:21.373Z,2.93
2023-02-17T15:01:51.081Z,2.87
2023-02-17T15:04:19.364Z,3.83
2023-02-17T15:06:50.651Z,4.40
2023-02-17T15:09:27.568Z,5.00
2023-02-17T15:11:57.313Z,3.40
2023-02-17T15:14:26.029Z,5.67
2023-02-17T15:16:55.815Z,5.37
2023-02-17T15:19:24.722Z,4.90
2023-02-17T15:21:53.687Z,5.07
2023-02-17T15:24:29.435Z,7.47
2023-02-17T15:26:58.919Z,8.70
2023-02-17T15:29:28.398Z,5.80
2023-02-17T15:32:01.693Z,6.03
2023-02-17T15:34:34.179Z,4.57
2023-02-17T15:37:02.989Z,5.53
2023-02-17T15:39:31.287Z,8.07
2023-02-17T15:42:05.269Z,5.50
2023-02-17T15:44:41.834Z,4.70
2023-02-17T15:47:16.953Z,5.37
2023-02-17T15:49:45.301Z,5.00
2023-02-17T15:52:15.291Z,4.13
2023-02-17T15:54:44.706Z,4.03
2023-02-17T15:57:23.992Z,3.53
2023-02-17T15:59:55.060Z,4.07
2023-02-17T16:02:26.709Z,3.90
2023-02-17T16:04:55.304Z,4.27
2023-02-17T16:07:23.589Z,4.13
2023-02-17T16:09:51.905Z,3.50
2023-02-17T16:12:26.755Z,4.20
2023-02-17T16:14:56.101Z,6.20
2023-02-17T16:17:27.012Z,13.83
2023-02-17T16:19:55.413Z,8.93
2023-02-17T16:22:23.804Z,5.57
2023-02-17T16:24:52.084Z,4.90
2023-02-17T16:27:20.469Z,13.80
2023-02-17T16:29:48.852Z,14.40
2023-02-17T16:32:17.228Z,8.53
2023-02-17T16:34:47.133Z,7.83
2023-02-17T16:37:18.745Z,6.33
2023-02-17T16:39:47.467Z,3.87
2023-02-17T16:42:16.186Z,4.33
2023-02-17T16:44:44.617Z,3.60
2023-02-17T16:47:22.666Z,3.00
2023-02-17T16:49:52.730Z,3.47
2023-02-17T16:52:26.128Z,3.27
2023-02-17T16:54:55.242Z,3.83
2023-02-17T16:57:24.874Z,4.00
2023-02-17T16:59:53.327Z,4.30
2023-02-17T17:02:22.221Z,3.47
2023-02-17T17:04:51.972Z,3.37
2023-02-17T17:07:20.293Z,3.70
2023-02-17T17:10:06.855Z,4.37
2023-02-17T17:12:37.097Z,4.30
2023-02-17T17:15:06.048Z,4.57
2023-02-17T17:17:41.529Z,3.83
2023-02-17T17:20:16.677Z,3.57
2023-02-17T17:22:46.712Z,4.60
2023-02-17T17:25:15.810Z,4.07
2023-02-17T17:27:46.019Z,3.60
2023-02-17T17:30:19.610Z,3.60
2023-02-17T17:32:48.513Z,3.30
2023-02-17T17:35:18.961Z,3.53
2023-02-17T17:37:48.220Z,3.73
2023-02-17T17:40:20.412Z,4.13
2023-02-17T17:42:48.821Z,3.93
2023-02-17T17:45:17.709Z,4.63
2023-02-17T17:47:46.444Z,4.57
2023-02-17T17:50:23.528Z,4.67
2023-02-17T17:52:52.373Z,4.27
2023-02-17T17:55:20.868Z,5.87
2023-02-17T17:57:49.240Z,4.40
2023-02-17T18:00:19.622Z,3.90
2023-02-17T18:02:47.986Z,3.67
2023-02-17T18:05:18.190Z,3.70
2023-02-17T18:07:48.949Z,4.23
2023-02-17T18:10:17.842Z,3.90
2023-02-17T18:12:47.895Z,3.43
2023-02-17T18:15:17.469Z,3.40
2023-02-17T18:17:46.931Z,3.13
2023-02-17T18:20:15.653Z,3.23
2023-02-17T18:22:45.617Z,3.77
2023-02-17T18:25:14.052Z,3.10
2023-02-17T18:27:45.301Z,4.30
2023-02-17T18:30:16.677Z,3.60
2023-02-17T18:32:45.230Z,3.57
2023-02-17T18:35:14.681Z,4.30
2023-02-17T18:37:45.970Z,3.27
2023-02-17T18:40:17.716Z,3.50
2023-02-17T18:42:46.639Z,3.00
2023-02-17T18:45:16.944Z,3.93
2023-02-17T18:47:46.298Z,3.40
2023-02-17T18:50:16.555Z,2.90
2023-02-17T18:52:46.260Z,2.70
2023-02-17T18:55:15.351Z,3.20
2023-02-17T18:57:45.386Z,3.47
2023-02-17T19:00:16.700Z,3.30
2023-02-17T19:02:45.417Z,4.90
2023-02-17T19:05:17.493Z,4.70
2023-02-17T19:07:47.294Z,4.30
2023-02-17T19:10:16.670Z,4.80
2023-02-17T19:12:45.076Z,6.17
2023-02-17T19:15:16.575Z,4.30
2023-02-17T19:17:45.628Z,6.23
2023-02-17T19:20:16.996Z,7.23
2023-02-17T19:22:46.822Z,7.83
2023-02-17T19:25:15.129Z,7.63
2023-02-17T19:27:43.493Z,10.80
2023-02-17T19:30:13.437Z,11.93
2023-02-17T19:32:42.000Z,9.10
2023-02-17T19:35:11.690Z,6.93
2023-02-17T19:37:40.173Z,5.67
2023-02-17T19:40:11.113Z,6.57
2023-02-17T19:42:40.325Z,6.07
2023-02-17T19:45:09.165Z,5.53
2023-02-17T19:47:37.492Z,8.43
2023-02-17T19:50:07.212Z,4.93
2023-02-17T19:52:35.496Z,9.70
2023-02-17T19:55:03.915Z,6.37
2023-02-17T19:57:33.558Z,5.63
2023-02-17T20:00:01.852Z,6.70
2023-02-17T20:02:30.200Z,6.57
2023-02-17T20:04:59.303Z,4.70
2023-02-17T20:07:27.707Z,4.77
2023-02-17T20:09:56.006Z,7.50
2023-02-17T20:12:24.271Z,5.20
2023-02-17T20:14:55.080Z,5.37
2023-02-17T20:17:23.302Z,5.27
2023-02-17T20:19:51.770Z,6.97
2023-02-17T20:22:20.794Z,6.23
2023-02-17T20:24:49.103Z,6.63
2023-02-17T20:27:17.647Z,7.67
2023-02-17T20:29:46.202Z,7.93
2023-02-17T20:32:15.927Z,6.23
2023-02-17T20:34:44.522Z,4.53
2023-02-17T20:37:13.096Z,3.43
2023-02-17T20:39:42.240Z,3.43
2023-02-17T20:42:10.981Z,3.40
2023-02-17T20:44:39.310Z,3.20
2023-02-17T20:47:07.687Z,3.57
2023-02-17T20:49:37.393Z,3.00
2023-02-17T20:52:06.801Z,3.00
2023-02-17T20:54:35.186Z,3.60
2023-02-17T20:57:04.246Z,3.30
2023-02-17T20:59:32.615Z,3.00
2023-02-17T21:02:00.893Z,3.10
2023-02-17T21:04:29.403Z,2.73
2023-02-17T21:07:01.293Z,2.90
2023-02-17T21:09:30.483Z,2.73
2023-02-17T21:11:58.691Z,2.47
2023-02-17T21:14:26.983Z,3.00
2023-02-17T21:16:55.376Z,2.97
2023-02-17T21:19:23.656Z,2.83
2023-02-17T21:21:52.050Z,2.97
2023-02-17T21:24:21.663Z,2.57
2023-02-17T21:26:49.977Z,2.90
2023-02-17T21:29:19.380Z,2.67
2023-02-17T21:31:47.778Z,2.80
2023-02-17T21:34:16.065Z,2.90
2023-02-17T21:36:44.307Z,2.87
2023-02-17T21:39:12.743Z,2.70
2023-02-17T21:41:44.405Z,2.33
2023-02-17T21:44:31.417Z,2.40
2023-02-17T21:46:59.699Z,2.53
2023-02-17T21:49:27.961Z,2.20
2023-02-17T21:51:56.250Z,2.50
2023-02-17T21:54:24.545Z,2.30
2023-02-17T21:56:54.219Z,2.43
2023-02-17T21:59:22.522Z,2.60
2023-02-17T22:01:51.914Z,2.80
2023-02-17T22:04:20.463Z,2.83
2023-02-17T22:06:48.916Z,2.73
2023-02-17T22:09:18.158Z,2.50
2023-02-17T22:11:47.698Z,2.57
2023-02-17T22:14:19.779Z,2.63
2023-02-17T22:16:49.755Z,3.17
2023-02-17T22:19:21.096Z,2.50
2023-02-17T22:21:50.920Z,2.33
2023-02-17T22:24:21.394Z,2.60
2023-02-17T22:26:50.273Z,2.53
2023-02-17T22:29:20.023Z,2.30
2023-02-17T22:31:50.424Z,2.40
2023-02-17T22:34:19.129Z,2.30
2023-02-17T22:36:47.408Z,2.43
2023-02-17T22:39:15.823Z,2.60
2023-02-17T22:41:44.112Z,2.33
2023-02-17T22:44:12.439Z,2.20
2023-02-17T22:46:42.129Z,2.13
2023-02-17T22:49:10.461Z,2.20
2023-02-17T22:51:40.829Z,2.70
2023-02-17T22:54:09.830Z,2.33
2023-02-17T22:56:38.922Z,1.97
2023-02-17T22:59:07.754Z,2.20
2023-02-17T23:01:37.691Z,2.20
2023-02-17T23:04:07.849Z,1.80
2023-02-17T23:06:38.835Z,1.83
2023-02-17T23:09:09.677Z,1.80
2023-02-17T23:11:54.017Z,1.90
2023-02-17T23:14:26.066Z,2.00
2023-02-17T23:16:57.233Z,1.73
2023-02-17T23:19:27.124Z,1.83
2023-02-17T23:21:58.880Z,1.90
2023-02-17T23:24:28.670Z,2.00
2023-02-17T23:26:59.934Z,2.00
2023-02-17T23:29:30.650Z,2.23
2023-02-17T23:31:59.717Z,2.10
2023-02-17T23:34:29.997Z,2.33
2023-02-17T23:36:58.657Z,2.33
2023-02-17T23:39:27.168Z,1.70
2023-02-17T23:41:55.498Z,2.10
2023-02-17T23:44:23.771Z,2.00
2023-02-17T23:46:52.035Z,1.80
2023-02-17T23:49:20.358Z,2.10
2023-02-17T23:51:50.056Z,2.07
2023-02-17T23:54:18.390Z,1.70
2023-02-17T23:56:46.746Z,2.53
2023-02-17T23:59:15.209Z,2.07
